sensor_id;sensor_type;location;lat;lon;timestamp;temperature;humidity
64111;DHT22;50401;48.188;11.566;2023-03-22T00:02:20;11.90;65.59
64111;DHT22;50401;48.188;11.566;2023-03-22T00:04:45;11.85;65.79
64111;DHT22;50401;48.188;11.566;2023-03-22T00:07:11;11.87;65.70
64111;DHT22;50401;48.188;11.566;2023-03-22T00:09:36;11.87;65.84
64111;DHT22;50401;48.188;11.566;2023-03-22T00:12:02;11.91;65.82
64111;DHT22;50401;48.188;11.566;2023-03-22T00:14:27;11.96;65.71
64111;DHT22;50401;48.188;11.566;2023-03-22T00:16:53;11.87;65.77
64111;DHT22;50401;48.188;11.566;2023-03-22T00:19:18;11.83;65.91
64111;DHT22;50401;48.188;11.566;2023-03-22T00:21:44;11.89;65.91
64111;DHT22;50401;48.188;11.566;2023-03-22T00:24:10;11.86;65.89
64111;DHT22;50401;48.188;11.566;2023-03-22T00:26:35;11.86;65.84
64111;DHT22;50401;48.188;11.566;2023-03-22T00:29:01;11.93;65.76
64111;DHT22;50401;48.188;11.566;2023-03-22T00:31:26;12.00;65.62
64111;DHT22;50401;48.188;11.566;2023-03-22T00:33:51;11.87;65.85
64111;DHT22;50401;48.188;11.566;2023-03-22T00:36:17;11.55;66.76
64111;DHT22;50401;48.188;11.566;2023-03-22T00:38:42;11.38;67.23
64111;DHT22;50401;48.188;11.566;2023-03-22T00:41:13;11.32;67.47
64111;DHT22;50401;48.188;11.566;2023-03-22T00:43:40;11.26;67.60
64111;DHT22;50401;48.188;11.566;2023-03-22T00:46:06;11.16;67.94
64111;DHT22;50401;48.188;11.566;2023-03-22T00:48:31;11.10;68.15
64111;DHT22;50401;48.188;11.566;2023-03-22T00:50:57;11.24;68.02
64111;DHT22;50401;48.188;11.566;2023-03-22T00:53:22;11.34;67.78
64111;DHT22;50401;48.188;11.566;2023-03-22T00:55:48;11.42;67.33
64111;DHT22;50401;48.188;11.566;2023-03-22T00:58:13;11.61;67.08
64111;DHT22;50401;48.188;11.566;2023-03-22T01:00:38;11.72;66.81
64111;DHT22;50401;48.188;11.566;2023-03-22T01:03:04;11.82;66.39
64111;DHT22;50401;48.188;11.566;2023-03-22T01:05:30;11.89;65.77
64111;DHT22;50401;48.188;11.566;2023-03-22T01:07:59;11.91;65.59
64111;DHT22;50401;48.188;11.566;2023-03-22T01:10:30;11.96;65.41
64111;DHT22;50401;48.188;11.566;2023-03-22T01:12:55;12.00;65.33
64111;DHT22;50401;48.188;11.566;2023-03-22T01:15:21;11.94;65.38
64111;DHT22;50401;48.188;11.566;2023-03-22T01:17:47;11.97;65.36
64111;DHT22;50401;48.188;11.566;2023-03-22T01:20:12;11.97;65.00
64111;DHT22;50401;48.188;11.566;2023-03-22T01:22:38;11.98;64.94
64111;DHT22;50401;48.188;11.566;2023-03-22T01:25:03;11.97;64.99
64111;DHT22;50401;48.188;11.566;2023-03-22T01:27:29;11.98;64.96
64111;DHT22;50401;48.188;11.566;2023-03-22T01:29:55;11.96;65.01
64111;DHT22;50401;48.188;11.566;2023-03-22T01:32:21;11.90;65.08
64111;DHT22;50401;48.188;11.566;2023-03-22T01:34:47;11.82;65.40
64111;DHT22;50401;48.188;11.566;2023-03-22T01:37:12;11.82;65.29
64111;DHT22;50401;48.188;11.566;2023-03-22T01:39:37;11.79;65.29
64111;DHT22;50401;48.188;11.566;2023-03-22T01:42:03;11.65;65.55
64111;DHT22;50401;48.188;11.566;2023-03-22T01:44:30;11.62;65.85
64111;DHT22;50401;48.188;11.566;2023-03-22T01:46:55;11.69;65.75
64111;DHT22;50401;48.188;11.566;2023-03-22T01:49:33;11.61;65.82
64111;DHT22;50401;48.188;11.566;2023-03-22T01:52:03;11.62;65.77
64111;DHT22;50401;48.188;11.566;2023-03-22T01:54:33;11.65;65.80
64111;DHT22;50401;48.188;11.566;2023-03-22T01:57:00;11.63;65.58
64111;DHT22;50401;48.188;11.566;2023-03-22T01:59:26;11.76;65.43
64111;DHT22;50401;48.188;11.566;2023-03-22T02:01:52;11.78;65.08
64111;DHT22;50401;48.188;11.566;2023-03-22T02:04:19;11.82;64.84
64111;DHT22;50401;48.188;11.566;2023-03-22T02:06:49;11.91;64.69
64111;DHT22;50401;48.188;11.566;2023-03-22T02:09:15;11.87;64.40
64111;DHT22;50401;48.188;11.566;2023-03-22T02:11:48;11.85;64.49
64111;DHT22;50401;48.188;11.566;2023-03-22T02:17:27;11.68;64.78
64111;DHT22;50401;48.188;11.566;2023-03-22T02:23:13;11.50;65.25
64111;DHT22;50401;48.188;11.566;2023-03-22T02:28:51;11.58;65.17
64111;DHT22;50401;48.188;11.566;2023-03-22T02:45:53;11.68;65.11
64111;DHT22;50401;48.188;11.566;2023-03-22T02:48:28;11.63;65.39
64111;DHT22;50401;48.188;11.566;2023-03-22T02:51:00;11.66;65.28
64111;DHT22;50401;48.188;11.566;2023-03-22T02:56:15;11.58;65.76
64111;DHT22;50401;48.188;11.566;2023-03-22T02:58:45;11.48;65.75
64111;DHT22;50401;48.188;11.566;2023-03-22T03:03:46;11.35;66.14
64111;DHT22;50401;48.188;11.566;2023-03-22T03:06:17;11.26;66.54
64111;DHT22;50401;48.188;11.566;2023-03-22T03:08:45;11.17;66.88
64111;DHT22;50401;48.188;11.566;2023-03-22T03:11:11;11.04;67.45
64111;DHT22;50401;48.188;11.566;2023-03-22T03:13:37;10.96;67.73
64111;DHT22;50401;48.188;11.566;2023-03-22T03:16:03;10.93;67.92
64111;DHT22;50401;48.188;11.566;2023-03-22T03:18:38;10.91;68.20
64111;DHT22;50401;48.188;11.566;2023-03-22T03:24:18;10.82;68.65
64111;DHT22;50401;48.188;11.566;2023-03-22T03:27:09;10.75;68.80
64111;DHT22;50401;48.188;11.566;2023-03-22T03:29:45;10.76;68.95
64111;DHT22;50401;48.188;11.566;2023-03-22T03:32:27;10.72;69.02
64111;DHT22;50401;48.188;11.566;2023-03-22T03:35:00;10.73;69.03
64111;DHT22;50401;48.188;11.566;2023-03-22T03:37:42;10.61;69.45
64111;DHT22;50401;48.188;11.566;2023-03-22T03:40:10;10.67;69.40
64111;DHT22;50401;48.188;11.566;2023-03-22T03:42:40;10.58;69.57
64111;DHT22;50401;48.188;11.566;2023-03-22T03:45:07;10.57;69.76
64111;DHT22;50401;48.188;11.566;2023-03-22T03:47:33;10.64;69.70
64111;DHT22;50401;48.188;11.566;2023-03-22T03:50:00;10.52;69.72
64111;DHT22;50401;48.188;11.566;2023-03-22T03:52:26;10.54;69.70
64111;DHT22;50401;48.188;11.566;2023-03-22T03:54:51;10.60;69.58
64111;DHT22;50401;48.188;11.566;2023-03-22T03:57:17;10.67;69.46
64111;DHT22;50401;48.188;11.566;2023-03-22T03:59:42;10.69;69.34
64111;DHT22;50401;48.188;11.566;2023-03-22T04:02:07;10.72;69.25
64111;DHT22;50401;48.188;11.566;2023-03-22T04:04:33;10.67;69.24
64111;DHT22;50401;48.188;11.566;2023-03-22T04:07:00;10.68;69.32
64111;DHT22;50401;48.188;11.566;2023-03-22T04:09:29;10.67;69.35
64111;DHT22;50401;48.188;11.566;2023-03-22T04:11:56;10.65;69.36
64111;DHT22;50401;48.188;11.566;2023-03-22T04:14:22;10.67;69.41
64111;DHT22;50401;48.188;11.566;2023-03-22T04:16:48;10.71;69.24
64111;DHT22;50401;48.188;11.566;2023-03-22T04:19:13;10.73;69.08
64111;DHT22;50401;48.188;11.566;2023-03-22T04:21:39;10.67;69.30
64111;DHT22;50401;48.188;11.566;2023-03-22T04:24:05;10.62;69.43
64111;DHT22;50401;48.188;11.566;2023-03-22T04:26:31;10.52;69.65
64111;DHT22;50401;48.188;11.566;2023-03-22T04:28:57;10.54;69.70
64111;DHT22;50401;48.188;11.566;2023-03-22T04:31:28;10.55;69.62
64111;DHT22;50401;48.188;11.566;2023-03-22T04:33:53;10.55;69.56
64111;DHT22;50401;48.188;11.566;2023-03-22T04:36:23;10.58;69.56
64111;DHT22;50401;48.188;11.566;2023-03-22T04:38:50;10.64;69.63
64111;DHT22;50401;48.188;11.566;2023-03-22T04:41:16;10.44;69.87
64111;DHT22;50401;48.188;11.566;2023-03-22T04:43:42;10.41;70.07
64111;DHT22;50401;48.188;11.566;2023-03-22T04:46:11;10.48;70.01
64111;DHT22;50401;48.188;11.566;2023-03-22T04:48:37;10.50;69.93
64111;DHT22;50401;48.188;11.566;2023-03-22T04:51:04;10.55;69.77
64111;DHT22;50401;48.188;11.566;2023-03-22T04:53:30;10.55;69.72
64111;DHT22;50401;48.188;11.566;2023-03-22T04:55:56;10.57;69.73
64111;DHT22;50401;48.188;11.566;2023-03-22T04:58:23;10.57;69.73
64111;DHT22;50401;48.188;11.566;2023-03-22T05:00:49;10.60;69.68
64111;DHT22;50401;48.188;11.566;2023-03-22T05:03:17;10.57;69.54
64111;DHT22;50401;48.188;11.566;2023-03-22T05:05:57;10.57;69.43
64111;DHT22;50401;48.188;11.566;2023-03-22T05:08:24;10.60;69.32
64111;DHT22;50401;48.188;11.566;2023-03-22T05:10:51;10.65;69.07
64111;DHT22;50401;48.188;11.566;2023-03-22T05:13:17;10.69;68.98
64111;DHT22;50401;48.188;11.566;2023-03-22T05:15:43;10.75;68.74
64111;DHT22;50401;48.188;11.566;2023-03-22T05:18:10;10.79;68.71
64111;DHT22;50401;48.188;11.566;2023-03-22T05:20:35;10.82;68.40
64111;DHT22;50401;48.188;11.566;2023-03-22T05:23:01;10.85;68.32
64111;DHT22;50401;48.188;11.566;2023-03-22T05:25:29;10.91;68.05
64111;DHT22;50401;48.188;11.566;2023-03-22T05:27:54;11.07;67.75
64111;DHT22;50401;48.188;11.566;2023-03-22T05:30:20;11.00;67.61
64111;DHT22;50401;48.188;11.566;2023-03-22T05:32:45;11.02;67.62
64111;DHT22;50401;48.188;11.566;2023-03-22T05:35:11;11.06;67.34
64111;DHT22;50401;48.188;11.566;2023-03-22T05:37:37;11.17;67.05
64111;DHT22;50401;48.188;11.566;2023-03-22T05:40:02;11.24;66.93
64111;DHT22;50401;48.188;11.566;2023-03-22T05:42:29;11.28;66.71
64111;DHT22;50401;48.188;11.566;2023-03-22T05:44:55;11.41;66.33
64111;DHT22;50401;48.188;11.566;2023-03-22T05:47:21;11.39;66.36
64111;DHT22;50401;48.188;11.566;2023-03-22T05:49:46;11.48;66.49
64111;DHT22;50401;48.188;11.566;2023-03-22T05:52:12;11.59;65.94
64111;DHT22;50401;48.188;11.566;2023-03-22T05:54:37;11.52;66.00
64111;DHT22;50401;48.188;11.566;2023-03-22T05:57:03;11.55;65.95
64111;DHT22;50401;48.188;11.566;2023-03-22T05:59:28;11.63;65.48
64111;DHT22;50401;48.188;11.566;2023-03-22T06:01:53;11.63;65.42
64111;DHT22;50401;48.188;11.566;2023-03-22T06:04:19;11.75;65.37
64111;DHT22;50401;48.188;11.566;2023-03-22T06:06:45;11.80;65.10
64111;DHT22;50401;48.188;11.566;2023-03-22T06:09:10;11.86;64.80
64111;DHT22;50401;48.188;11.566;2023-03-22T06:11:36;11.86;64.64
64111;DHT22;50401;48.188;11.566;2023-03-22T06:14:01;12.00;64.33
64111;DHT22;50401;48.188;11.566;2023-03-22T06:16:26;12.07;64.27
64111;DHT22;50401;48.188;11.566;2023-03-22T06:18:52;12.18;63.69
64111;DHT22;50401;48.188;11.566;2023-03-22T06:21:17;12.25;63.36
64111;DHT22;50401;48.188;11.566;2023-03-22T06:23:43;12.35;63.09
64111;DHT22;50401;48.188;11.566;2023-03-22T06:26:08;12.48;62.75
64111;DHT22;50401;48.188;11.566;2023-03-22T06:28:36;12.60;62.21
64111;DHT22;50401;48.188;11.566;2023-03-22T06:31:08;12.72;61.72
64111;DHT22;50401;48.188;11.566;2023-03-22T06:33:35;12.89;61.21
64111;DHT22;50401;48.188;11.566;2023-03-22T06:36:02;13.00;60.78
64111;DHT22;50401;48.188;11.566;2023-03-22T06:38:28;13.12;60.72
64111;DHT22;50401;48.188;11.566;2023-03-22T06:40:54;13.28;60.03
64111;DHT22;50401;48.188;11.566;2023-03-22T06:43:20;13.41;59.73
64111;DHT22;50401;48.188;11.566;2023-03-22T06:45:46;13.73;58.22
64111;DHT22;50401;48.188;11.566;2023-03-22T06:48:12;14.01;57.82
64111;DHT22;50401;48.188;11.566;2023-03-22T06:50:37;14.30;56.86
64111;DHT22;50401;48.188;11.566;2023-03-22T06:53:04;14.63;55.95
64111;DHT22;50401;48.188;11.566;2023-03-22T06:55:30;14.77;55.38
64111;DHT22;50401;48.188;11.566;2023-03-22T06:58:02;15.02;54.39
64111;DHT22;50401;48.188;11.566;2023-03-22T07:00:28;15.33;53.59
64111;DHT22;50401;48.188;11.566;2023-03-22T07:02:55;15.81;52.25
64111;DHT22;50401;48.188;11.566;2023-03-22T07:05:20;16.12;51.54
64111;DHT22;50401;48.188;11.566;2023-03-22T07:07:46;16.34;51.05
64111;DHT22;50401;48.188;11.566;2023-03-22T07:10:11;17.05;49.41
64111;DHT22;50401;48.188;11.566;2023-03-22T07:12:37;18.18;46.72
64111;DHT22;50401;48.188;11.566;2023-03-22T07:15:02;19.02;45.06
64111;DHT22;50401;48.188;11.566;2023-03-22T07:17:28;19.11;44.61
64111;DHT22;50401;48.188;11.566;2023-03-22T07:19:53;20.36;42.01
64111;DHT22;50401;48.188;11.566;2023-03-22T07:22:19;21.98;39.00
64111;DHT22;50401;48.188;11.566;2023-03-22T07:24:47;23.58;36.52
64111;DHT22;50401;48.188;11.566;2023-03-22T07:27:12;24.34;35.03
64111;DHT22;50401;48.188;11.566;2023-03-22T07:29:38;24.72;34.37
64111;DHT22;50401;48.188;11.566;2023-03-22T07:32:03;24.92;33.84
64111;DHT22;50401;48.188;11.566;2023-03-22T07:34:29;25.22;33.91
64111;DHT22;50401;48.188;11.566;2023-03-22T07:36:55;25.24;33.44
64111;DHT22;50401;48.188;11.566;2023-03-22T07:39:23;25.68;33.21
64111;DHT22;50401;48.188;11.566;2023-03-22T07:41:49;25.86;32.39
64111;DHT22;50401;48.188;11.566;2023-03-22T07:44:16;26.36;32.13
64111;DHT22;50401;48.188;11.566;2023-03-22T07:46:41;26.93;31.32
64111;DHT22;50401;48.188;11.566;2023-03-22T07:49:06;27.42;30.54
64111;DHT22;50401;48.188;11.566;2023-03-22T07:51:32;27.65;30.01
64111;DHT22;50401;48.188;11.566;2023-03-22T07:53:57;27.63;30.21
64111;DHT22;50401;48.188;11.566;2023-03-22T07:56:24;27.76;30.08
64111;DHT22;50401;48.188;11.566;2023-03-22T07:58:50;27.78;29.85
64111;DHT22;50401;48.188;11.566;2023-03-22T08:01:15;28.29;29.31
64111;DHT22;50401;48.188;11.566;2023-03-22T08:03:40;29.00;28.57
64111;DHT22;50401;48.188;11.566;2023-03-22T08:06:06;29.32;27.96
64111;DHT22;50401;48.188;11.566;2023-03-22T08:08:33;29.62;27.55
64111;DHT22;50401;48.188;11.566;2023-03-22T08:10:59;29.78;27.76
64111;DHT22;50401;48.188;11.566;2023-03-22T08:13:25;29.90;27.31
64111;DHT22;50401;48.188;11.566;2023-03-22T08:15:50;29.12;27.84
64111;DHT22;50401;48.188;11.566;2023-03-22T08:18:16;29.97;28.01
64111;DHT22;50401;48.188;11.566;2023-03-22T08:20:41;30.31;27.51
64111;DHT22;50401;48.188;11.566;2023-03-22T08:23:10;30.81;26.78
64111;DHT22;50401;48.188;11.566;2023-03-22T08:25:40;31.28;26.12
64111;DHT22;50401;48.188;11.566;2023-03-22T08:28:05;31.40;26.20
64111;DHT22;50401;48.188;11.566;2023-03-22T08:30:31;31.56;26.15
64111;DHT22;50401;48.188;11.566;2023-03-22T08:32:56;31.39;26.54
64111;DHT22;50401;48.188;11.566;2023-03-22T08:35:21;31.84;26.14
64111;DHT22;50401;48.188;11.566;2023-03-22T08:37:47;31.98;25.96
64111;DHT22;50401;48.188;11.566;2023-03-22T08:40:12;32.04;25.19
64111;DHT22;50401;48.188;11.566;2023-03-22T08:42:38;31.82;25.10
64111;DHT22;50401;48.188;11.566;2023-03-22T08:45:04;32.01;24.83
64111;DHT22;50401;48.188;11.566;2023-03-22T08:47:30;32.22;24.84
64111;DHT22;50401;48.188;11.566;2023-03-22T08:49:55;32.02;24.74
64111;DHT22;50401;48.188;11.566;2023-03-22T08:52:21;32.12;24.99
64111;DHT22;50401;48.188;11.566;2023-03-22T08:54:46;31.91;24.90
64111;DHT22;50401;48.188;11.566;2023-03-22T08:57:11;32.01;24.83
64111;DHT22;50401;48.188;11.566;2023-03-22T08:59:38;31.67;25.30
64111;DHT22;50401;48.188;11.566;2023-03-22T09:02:04;31.40;25.41
64111;DHT22;50401;48.188;11.566;2023-03-22T09:04:29;31.05;26.04
64111;DHT22;50401;48.188;11.566;2023-03-22T09:06:55;30.21;27.02
64111;DHT22;50401;48.188;11.566;2023-03-22T09:09:20;28.84;28.62
64111;DHT22;50401;48.188;11.566;2023-03-22T09:11:46;28.11;29.22
64111;DHT22;50401;48.188;11.566;2023-03-22T09:14:11;27.41;30.20
64111;DHT22;50401;48.188;11.566;2023-03-22T09:16:37;26.68;31.17
64111;DHT22;50401;48.188;11.566;2023-03-22T09:19:03;26.36;30.72
64111;DHT22;50401;48.188;11.566;2023-03-22T09:21:28;25.38;32.02
64111;DHT22;50401;48.188;11.566;2023-03-22T09:23:54;25.05;32.78
64111;DHT22;50401;48.188;11.566;2023-03-22T09:26:20;23.98;34.55
64111;DHT22;50401;48.188;11.566;2023-03-22T09:28:47;24.05;34.00
64111;DHT22;50401;48.188;11.566;2023-03-22T09:31:12;24.05;34.33
64111;DHT22;50401;48.188;11.566;2023-03-22T09:33:38;23.95;33.92
64111;DHT22;50401;48.188;11.566;2023-03-22T09:36:05;23.89;34.53
64111;DHT22;50401;48.188;11.566;2023-03-22T09:38:31;23.65;34.64
64111;DHT22;50401;48.188;11.566;2023-03-22T09:41:22;23.74;34.45
64111;DHT22;50401;48.188;11.566;2023-03-22T09:43:48;23.67;34.75
64111;DHT22;50401;48.188;11.566;2023-03-22T09:46:26;23.71;34.57
64111;DHT22;50401;48.188;11.566;2023-03-22T09:48:53;23.43;34.69
64111;DHT22;50401;48.188;11.566;2023-03-22T09:51:36;23.46;34.75
64111;DHT22;50401;48.188;11.566;2023-03-22T09:54:02;23.45;35.27
64111;DHT22;50401;48.188;11.566;2023-03-22T09:56:29;23.36;35.27
64111;DHT22;50401;48.188;11.566;2023-03-22T09:59:07;22.84;35.46
64111;DHT22;50401;48.188;11.566;2023-03-22T10:01:50;22.78;35.78
64111;DHT22;50401;48.188;11.566;2023-03-22T10:04:23;22.42;36.57
64111;DHT22;50401;48.188;11.566;2023-03-22T10:10:05;22.57;36.43
64111;DHT22;50401;48.188;11.566;2023-03-22T10:12:41;22.49;36.53
64111;DHT22;50401;48.188;11.566;2023-03-22T10:15:35;22.18;37.51
64111;DHT22;50401;48.188;11.566;2023-03-22T10:18:05;21.84;37.80
64111;DHT22;50401;48.188;11.566;2023-03-22T10:20:33;21.76;37.71
64111;DHT22;50401;48.188;11.566;2023-03-22T10:23:05;21.52;38.60
64111;DHT22;50401;48.188;11.566;2023-03-22T10:25:36;21.50;38.56
64111;DHT22;50401;48.188;11.566;2023-03-22T10:28:12;21.22;38.78
64111;DHT22;50401;48.188;11.566;2023-03-22T10:30:39;21.19;39.14
64111;DHT22;50401;48.188;11.566;2023-03-22T10:33:42;20.85;39.12
64111;DHT22;50401;48.188;11.566;2023-03-22T10:36:16;20.73;40.04
64111;DHT22;50401;48.188;11.566;2023-03-22T10:38:46;20.65;39.93
64111;DHT22;50401;48.188;11.566;2023-03-22T10:41:15;20.62;40.24
64111;DHT22;50401;48.188;11.566;2023-03-22T10:43:41;20.60;39.34
64111;DHT22;50401;48.188;11.566;2023-03-22T10:46:13;20.49;40.11
64111;DHT22;50401;48.188;11.566;2023-03-22T10:48:44;20.25;39.86
64111;DHT22;50401;48.188;11.566;2023-03-22T10:51:25;20.25;40.17
64111;DHT22;50401;48.188;11.566;2023-03-22T10:53:53;20.11;40.84
64111;DHT22;50401;48.188;11.566;2023-03-22T10:56:20;20.07;40.58
64111;DHT22;50401;48.188;11.566;2023-03-22T10:58:47;19.84;39.54
64111;DHT22;50401;48.188;11.566;2023-03-22T11:01:36;19.87;40.79
64111;DHT22;50401;48.188;11.566;2023-03-22T11:04:08;19.87;40.66
64111;DHT22;50401;48.188;11.566;2023-03-22T11:06:39;19.90;40.36
64111;DHT22;50401;48.188;11.566;2023-03-22T11:09:15;19.77;40.51
64111;DHT22;50401;48.188;11.566;2023-03-22T11:12:01;19.79;40.81
64111;DHT22;50401;48.188;11.566;2023-03-22T11:14:32;19.65;40.78
64111;DHT22;50401;48.188;11.566;2023-03-22T11:17:08;19.69;42.08
64111;DHT22;50401;48.188;11.566;2023-03-22T11:19:40;19.67;41.84
64111;DHT22;50401;48.188;11.566;2023-03-22T11:22:31;19.66;40.65
64111;DHT22;50401;48.188;11.566;2023-03-22T11:24:58;19.69;40.71
64111;DHT22;50401;48.188;11.566;2023-03-22T11:27:27;19.61;40.82
64111;DHT22;50401;48.188;11.566;2023-03-22T11:29:59;19.66;41.05
64111;DHT22;50401;48.188;11.566;2023-03-22T11:32:36;19.67;40.66
64111;DHT22;50401;48.188;11.566;2023-03-22T11:35:15;19.76;41.20
64111;DHT22;50401;48.188;11.566;2023-03-22T11:37:45;19.65;41.58
64111;DHT22;50401;48.188;11.566;2023-03-22T11:40:21;19.70;41.22
64111;DHT22;50401;48.188;11.566;2023-03-22T11:42:51;19.69;42.02
64111;DHT22;50401;48.188;11.566;2023-03-22T11:45:29;19.73;41.75
64111;DHT22;50401;48.188;11.566;2023-03-22T11:48:07;19.76;41.57
64111;DHT22;50401;48.188;11.566;2023-03-22T11:50:37;19.76;42.11
64111;DHT22;50401;48.188;11.566;2023-03-22T11:53:07;19.59;41.44
64111;DHT22;50401;48.188;11.566;2023-03-22T11:55:36;19.52;41.40
64111;DHT22;50401;48.188;11.566;2023-03-22T11:58:03;19.59;41.58
64111;DHT22;50401;48.188;11.566;2023-03-22T12:00:31;19.65;42.50
64111;DHT22;50401;48.188;11.566;2023-03-22T12:03:04;19.56;42.70
64111;DHT22;50401;48.188;11.566;2023-03-22T12:05:32;19.51;42.92
64111;DHT22;50401;48.188;11.566;2023-03-22T12:08:02;19.55;43.11
64111;DHT22;50401;48.188;11.566;2023-03-22T12:10:31;19.61;43.26
64111;DHT22;50401;48.188;11.566;2023-03-22T12:13:02;19.67;43.41
64111;DHT22;50401;48.188;11.566;2023-03-22T12:15:40;19.58;43.40
64111;DHT22;50401;48.188;11.566;2023-03-22T12:18:11;19.70;42.79
64111;DHT22;50401;48.188;11.566;2023-03-22T12:20:56;19.67;41.79
64111;DHT22;50401;48.188;11.566;2023-03-22T12:23:25;19.42;41.76
64111;DHT22;50401;48.188;11.566;2023-03-22T12:29:13;19.10;43.46
64111;DHT22;50401;48.188;11.566;2023-03-22T12:31:20;19.21;43.42
64111;DHT22;50401;48.188;11.566;2023-03-22T12:33:50;19.27;43.23
64111;DHT22;50401;48.188;11.566;2023-03-22T12:36:20;18.95;42.84
64111;DHT22;50401;48.188;11.566;2023-03-22T12:38:51;18.95;43.02
64111;DHT22;50401;48.188;11.566;2023-03-22T12:41:25;19.15;43.68
64111;DHT22;50401;48.188;11.566;2023-03-22T12:51:43;19.45;41.97
64111;DHT22;50401;48.188;11.566;2023-03-22T12:54:11;19.51;41.50
64111;DHT22;50401;48.188;11.566;2023-03-22T12:56:40;19.63;41.52
64111;DHT22;50401;48.188;11.566;2023-03-22T12:59:15;19.65;41.67
64111;DHT22;50401;48.188;11.566;2023-03-22T13:01:50;19.70;41.31
64111;DHT22;50401;48.188;11.566;2023-03-22T13:04:25;19.62;40.16
64111;DHT22;50401;48.188;11.566;2023-03-22T13:09:19;19.74;39.78
64111;DHT22;50401;48.188;11.566;2023-03-22T13:17:43;19.76;39.74
64111;DHT22;50401;48.188;11.566;2023-03-22T13:38:07;19.73;38.65
64111;DHT22;50401;48.188;11.566;2023-03-22T13:40:36;19.74;38.89
64111;DHT22;50401;48.188;11.566;2023-03-22T13:46:05;19.69;39.17
64111;DHT22;50401;48.188;11.566;2023-03-22T13:51:37;19.59;39.07
64111;DHT22;50401;48.188;11.566;2023-03-22T13:59:19;19.54;39.01
64111;DHT22;50401;48.188;11.566;2023-03-22T14:04:43;19.44;37.77
64111;DHT22;50401;48.188;11.566;2023-03-22T14:07:23;19.44;38.14
64111;DHT22;50401;48.188;11.566;2023-03-22T14:10:02;19.47;38.41
64111;DHT22;50401;48.188;11.566;2023-03-22T14:15:17;19.36;40.12
64111;DHT22;50401;48.188;11.566;2023-03-22T14:17:48;19.30;40.36
64111;DHT22;50401;48.188;11.566;2023-03-22T14:20:17;19.34;40.27
64111;DHT22;50401;48.188;11.566;2023-03-22T14:22:58;19.31;40.11
64111;DHT22;50401;48.188;11.566;2023-03-22T14:25:27;19.27;40.35
64111;DHT22;50401;48.188;11.566;2023-03-22T14:27:53;19.36;40.95
64111;DHT22;50401;48.188;11.566;2023-03-22T14:33:06;19.69;42.67
64111;DHT22;50401;48.188;11.566;2023-03-22T14:35:36;19.74;39.95
64111;DHT22;50401;48.188;11.566;2023-03-22T14:38:05;19.79;40.13
64111;DHT22;50401;48.188;11.566;2023-03-22T14:40:36;19.74;38.59
64111;DHT22;50401;48.188;11.566;2023-03-22T14:43:22;19.79;37.52
64111;DHT22;50401;48.188;11.566;2023-03-22T14:45:55;19.77;39.11
64111;DHT22;50401;48.188;11.566;2023-03-22T14:48:24;19.73;39.01
64111;DHT22;50401;48.188;11.566;2023-03-22T14:50:54;19.72;38.93
64111;DHT22;50401;48.188;11.566;2023-03-22T14:53:31;19.62;38.38
64111;DHT22;50401;48.188;11.566;2023-03-22T14:55:58;19.66;38.73
64111;DHT22;50401;48.188;11.566;2023-03-22T14:58:31;19.62;38.82
64111;DHT22;50401;48.188;11.566;2023-03-22T15:01:02;19.70;39.16
64111;DHT22;50401;48.188;11.566;2023-03-22T15:03:28;19.56;38.18
64111;DHT22;50401;48.188;11.566;2023-03-22T15:05:57;19.51;37.37
64111;DHT22;50401;48.188;11.566;2023-03-22T15:08:25;19.54;37.72
64111;DHT22;50401;48.188;11.566;2023-03-22T15:10:57;19.54;37.70
64111;DHT22;50401;48.188;11.566;2023-03-22T15:13:24;19.59;37.48
64111;DHT22;50401;48.188;11.566;2023-03-22T15:15:51;19.59;37.40
64111;DHT22;50401;48.188;11.566;2023-03-22T15:18:19;19.52;37.25
64111;DHT22;50401;48.188;11.566;2023-03-22T15:20:47;19.54;37.03
64111;DHT22;50401;48.188;11.566;2023-03-22T15:25:54;19.51;37.19
64111;DHT22;50401;48.188;11.566;2023-03-22T15:28:26;19.54;37.30
64111;DHT22;50401;48.188;11.566;2023-03-22T15:30:53;19.39;36.44
64111;DHT22;50401;48.188;11.566;2023-03-22T15:33:30;19.41;37.18
64111;DHT22;50401;48.188;11.566;2023-03-22T15:35:56;19.35;36.57
64111;DHT22;50401;48.188;11.566;2023-03-22T15:38:40;19.39;37.47
64111;DHT22;50401;48.188;11.566;2023-03-22T15:41:27;19.38;37.82
64111;DHT22;50401;48.188;11.566;2023-03-22T15:49:52;19.41;37.34
64111;DHT22;50401;48.188;11.566;2023-03-22T15:52:21;19.42;37.14
64111;DHT22;50401;48.188;11.566;2023-03-22T15:54:53;19.45;37.17
64111;DHT22;50401;48.188;11.566;2023-03-22T16:00:02;19.20;36.61
64111;DHT22;50401;48.188;11.566;2023-03-22T16:02:34;19.18;37.23
64111;DHT22;50401;48.188;11.566;2023-03-22T16:05:00;19.15;36.31
64111;DHT22;50401;48.188;11.566;2023-03-22T16:07:29;19.11;36.42
64111;DHT22;50401;48.188;11.566;2023-03-22T16:09:56;19.04;36.57
64111;DHT22;50401;48.188;11.566;2023-03-22T16:12:22;19.00;36.50
64111;DHT22;50401;48.188;11.566;2023-03-22T16:14:49;18.95;36.62
64111;DHT22;50401;48.188;11.566;2023-03-22T16:17:22;18.79;37.08
64111;DHT22;50401;48.188;11.566;2023-03-22T16:19:48;18.62;37.87
64111;DHT22;50401;48.188;11.566;2023-03-22T16:22:14;18.68;38.45
64111;DHT22;50401;48.188;11.566;2023-03-22T16:24:40;18.68;38.67
64111;DHT22;50401;48.188;11.566;2023-03-22T16:27:16;18.72;39.04
64111;DHT22;50401;48.188;11.566;2023-03-22T16:29:42;18.72;39.25
64111;DHT22;50401;48.188;11.566;2023-03-22T16:32:25;18.71;38.95
64111;DHT22;50401;48.188;11.566;2023-03-22T16:34:51;18.71;39.49
64111;DHT22;50401;48.188;11.566;2023-03-22T16:37:21;18.73;40.05
64111;DHT22;50401;48.188;11.566;2023-03-22T16:39:47;18.73;40.31
64111;DHT22;50401;48.188;11.566;2023-03-22T16:42:21;18.68;40.34
64111;DHT22;50401;48.188;11.566;2023-03-22T16:44:48;18.66;40.40
64111;DHT22;50401;48.188;11.566;2023-03-22T16:47:25;18.56;40.65
64111;DHT22;50401;48.188;11.566;2023-03-22T16:49:51;18.59;40.49
64111;DHT22;50401;48.188;11.566;2023-03-22T16:52:21;18.47;40.48
64111;DHT22;50401;48.188;11.566;2023-03-22T16:54:48;18.40;40.35
64111;DHT22;50401;48.188;11.566;2023-03-22T16:57:19;18.36;40.50
64111;DHT22;50401;48.188;11.566;2023-03-22T16:59:45;18.31;40.34
64111;DHT22;50401;48.188;11.566;2023-03-22T17:02:27;18.24;40.31
64111;DHT22;50401;48.188;11.566;2023-03-22T17:04:54;18.27;39.94
64111;DHT22;50401;48.188;11.566;2023-03-22T17:07:22;18.18;39.86
64111;DHT22;50401;48.188;11.566;2023-03-22T17:09:51;18.16;39.81